Time;durP1;ratioP1;P1;durP2;ratioP2;P2;SDS_P1;SDS_P2;PMS_P1;PMS_P2;Temp;Humidity;BMP_temperature;BMP_pressure;BME280_temperature;BME280_humidity;BME280_pressure;Samples;Min_cycle;Max_cycle;Signal;HPM_P1;HPM_P2
2021/12/06 00:01:48;;;;;;;6.85;4.55;;;;;;;3.79;100.00;99445.25;4985370;28;20110;-67
2021/12/06 00:04:19;;;;;;;8.18;4.78;;;;;;;3.75;100.00;99445.31;4992337;28;20030;-67
2021/12/06 00:06:54;;;;;;;8.60;4.95;;;;;;;3.65;100.00;99448.97;4991177;28;20041;-67
2021/12/06 00:09:22;;;;;;;8.27;4.72;;;;;;;3.63;100.00;99450.72;4988502;28;20052;-67
2021/12/06 00:11:50;;;;;;;7.57;4.72;;;;;;;3.52;100.00;99448.28;4993876;28;20031;-67
2021/12/06 00:14:16;;;;;;;8.85;5.10;;;;;;;3.53;100.00;99451.75;4990526;28;20046;-67
2021/12/06 00:16:42;;;;;;;8.98;5.50;;;;;;;3.53;100.00;99457.88;4993121;28;20093;-67
2021/12/06 00:19:07;;;;;;;10.70;4.65;;;;;;;3.50;100.00;99451.78;4994250;28;20023;-67
2021/12/06 00:21:34;;;;;;;8.00;5.03;;;;;;;3.52;100.00;99456.16;4994065;28;20018;-67
2021/12/06 00:23:59;;;;;;;6.25;4.15;;;;;;;3.46;100.00;99447.50;4995729;28;20084;-68
2021/12/06 00:26:25;;;;;;;6.40;4.15;;;;;;;3.49;100.00;99453.53;4984875;28;20117;-67
2021/12/06 00:28:56;;;;;;;6.10;4.43;;;;;;;3.48;100.00;99456.19;4980766;28;20030;-67
2021/12/06 00:31:24;;;;;;;6.85;4.43;;;;;;;3.42;100.00;99457.16;4979739;28;20050;-67
2021/12/06 00:33:57;;;;;;;8.63;4.93;;;;;;;3.39;100.00;99451.97;4974049;28;20030;-67
2021/12/06 00:36:27;;;;;;;7.20;4.30;;;;;;;3.38;100.00;99470.34;4977551;28;20542;-67
2021/12/06 00:38:54;;;;;;;8.13;3.92;;;;;;;3.28;100.00;99463.50;4994077;28;20046;-67
2021/12/06 00:41:20;;;;;;;7.18;4.55;;;;;;;3.26;100.00;99475.78;4992924;28;20022;-67
2021/12/06 00:43:45;;;;;;;7.50;4.90;;;;;;;3.23;100.00;99476.66;4994291;28;20038;-67
2021/12/06 00:46:11;;;;;;;8.07;5.00;;;;;;;3.20;100.00;99486.34;4990553;28;20085;-67
2021/12/06 00:48:36;;;;;;;8.43;4.90;;;;;;;3.07;100.00;99475.13;4975186;28;20038;-67
2021/12/06 00:51:03;;;;;;;7.00;4.43;;;;;;;3.15;100.00;99488.16;4976225;28;20031;-67
2021/12/06 00:53:28;;;;;;;11.35;5.32;;;;;;;3.16;100.00;99479.41;4978566;28;20502;-67
2021/12/06 00:55:54;;;;;;;7.38;4.65;;;;;;;3.17;100.00;99486.38;4974149;28;20031;-67
2021/12/06 00:58:19;;;;;;;9.65;5.22;;;;;;;3.12;100.00;99493.44;4988867;28;20105;-68
2021/12/06 01:00:48;;;;;;;8.68;5.28;;;;;;;3.10;100.00;99495.25;4993143;28;20029;-68
2021/12/06 01:03:17;;;;;;;9.75;4.95;;;;;;;3.08;100.00;99502.25;4991766;28;20430;-67
2021/12/06 01:05:43;;;;;;;10.45;5.32;;;;;;;3.07;100.00;99501.38;4980057;28;20023;-67
2021/12/06 01:08:09;;;;;;;9.25;5.57;;;;;;;3.08;100.00;99497.00;4972846;28;20019;-67
2021/12/06 01:10:35;;;;;;;9.98;5.45;;;;;;;3.09;100.00;99504.88;4984213;28;20471;-67
2021/12/06 01:13:02;;;;;;;8.68;5.25;;;;;;;3.20;100.00;99512.63;4991984;28;20057;-67
2021/12/06 01:15:29;;;;;;;12.38;6.30;;;;;;;3.25;100.00;99514.31;4985885;28;20027;-67
2021/12/06 01:17:57;;;;;;;12.80;6.22;;;;;;;3.29;100.00;99520.41;4982564;28;20030;-68
2021/12/06 01:20:27;;;;;;;10.43;5.63;;;;;;;3.22;100.00;99532.75;4992971;28;20442;-68
2021/12/06 01:22:57;;;;;;;7.80;5.00;;;;;;;3.12;100.00;99530.22;4993072;28;20053;-68
2021/12/06 01:28:16;;;;;;;9.60;5.68;;;;;;;3.05;100.00;99539.94;4987234;28;20031;-67
2021/12/06 01:39:20;;;;;;;8.98;4.97;;;;;;;2.89;100.00;99534.84;4992768;28;20037;-67
2021/12/06 01:41:13;;;;;;;10.15;6.00;;;;;;;3.07;100.00;99558.28;4979343;28;20018;-67
2021/12/06 01:44:03;;;;;;;9.50;4.85;;;;;;;3.10;100.00;99566.19;5001958;28;20133;-67
2021/12/06 01:46:30;;;;;;;10.38;5.78;;;;;;;3.07;100.00;99580.19;5006449;28;20076;-67
2021/12/06 01:48:56;;;;;;;9.77;5.22;;;;;;;3.04;100.00;99576.72;4997216;28;20438;-67
2021/12/06 01:51:21;;;;;;;7.65;4.85;;;;;;;2.99;100.00;99586.41;4994884;28;20053;-67
2021/12/06 01:53:47;;;;;;;9.65;4.40;;;;;;;2.94;100.00;99582.94;4993279;28;20033;-67
2021/12/06 01:56:12;;;;;;;8.38;4.72;;;;;;;2.94;100.00;99577.69;4992491;28;20462;-67
2021/12/06 01:58:38;;;;;;;8.38;5.35;;;;;;;2.98;100.00;99587.31;4988786;28;20018;-67
2021/12/06 02:01:04;;;;;;;9.27;5.72;;;;;;;3.04;100.00;99584.59;4984651;28;20023;-67
2021/12/06 02:03:29;;;;;;;9.73;5.35;;;;;;;3.09;100.00;99596.81;4972378;28;20034;-68
2021/12/06 02:05:55;;;;;;;8.98;5.32;;;;;;;3.12;100.00;99588.03;4984563;28;20041;-68
2021/12/06 02:08:21;;;;;;;7.03;4.80;;;;;;;3.06;100.00;99570.59;4993438;28;20104;-67
2021/12/06 02:10:47;;;;;;;12.35;5.95;;;;;;;3.13;100.00;99584.53;4992793;28;20067;-67
2021/12/06 02:13:13;;;;;;;10.00;5.07;;;;;;;3.17;100.00;99580.97;4989153;28;20148;-67
2021/12/06 02:18:29;;;;;;;9.73;5.93;;;;;;;3.23;100.00;99573.88;4975920;28;20030;-67
2021/12/06 02:21:02;;;;;;;13.80;5.75;;;;;;;3.44;100.00;99592.06;4972133;28;20117;-67
2021/12/06 02:23:30;;;;;;;11.90;5.93;;;;;;;3.50;100.00;99596.38;4973458;28;20553;-67
2021/12/06 02:25:55;;;;;;;10.40;5.60;;;;;;;3.54;100.00;99608.63;4997465;28;20053;-67
2021/12/06 02:28:21;;;;;;;11.23;5.85;;;;;;;3.54;100.00;99598.09;5012105;28;20057;-67
2021/12/06 02:30:46;;;;;;;9.25;5.70;;;;;;;3.50;100.00;99606.91;5011982;28;20072;-67
2021/12/06 02:33:12;;;;;;;12.38;5.95;;;;;;;3.46;100.00;99611.31;4997639;28;20038;-67
2021/12/06 02:35:38;;;;;;;13.05;5.78;;;;;;;3.40;100.00;99615.78;4976578;28;20078;-66
2021/12/06 02:38:07;;;;;;;10.23;6.28;;;;;;;3.39;100.00;99614.91;4971950;28;20027;-66
2021/12/06 02:40:34;;;;;;;10.25;5.80;;;;;;;3.40;100.00;99615.78;4971946;28;20091;-66
2021/12/06 02:43:03;;;;;;;13.55;7.15;;;;;;;3.45;100.00;99624.47;4975538;28;20474;-66
2021/12/06 02:45:30;;;;;;;10.35;6.60;;;;;;;3.46;100.00;99626.25;4977326;28;20881;-66
2021/12/06 02:48:00;;;;;;;10.20;5.40;;;;;;;3.50;100.00;99627.94;4972224;28;20038;-66
2021/12/06 02:50:29;;;;;;;13.32;6.10;;;;;;;3.54;100.00;99620.00;4973011;28;20150;-66
2021/12/06 02:52:55;;;;;;;15.57;5.78;;;;;;;3.57;100.00;99625.25;4982124;28;20084;-66
2021/12/06 02:55:30;;;;;;;12.18;6.20;;;;;;;3.62;100.00;99625.19;4973900;28;20145;-66
2021/12/06 02:58:32;;;;;;;14.95;6.60;;;;;;;3.69;100.00;99618.97;4973880;28;20033;-66
2021/12/06 03:01:00;;;;;;;14.82;7.65;;;;;;;3.89;100.00;99624.84;4991223;28;20478;-66
2021/12/06 03:03:25;;;;;;;15.25;6.65;;;;;;;3.88;100.00;99620.47;4989474;28;20054;-66
2021/12/06 03:05:52;;;;;;;17.27;7.07;;;;;;;3.72;100.00;99609.25;4982360;28;20058;-66
2021/12/06 03:09:01;;;;;;;15.25;7.47;;;;;;;3.95;100.00;99627.41;4970063;28;20053;-66
2021/12/06 03:11:31;;;;;;;18.00;7.57;;;;;;;3.79;100.00;99629.34;4927392;29;20067;-66
2021/12/06 03:13:57;;;;;;;18.70;10.35;;;;;;;3.74;100.00;99648.72;4966748;28;20142;-68
2021/12/06 03:16:23;;;;;;;13.82;6.68;;;;;;;3.73;100.00;99644.34;4986592;28;20121;-67
2021/12/06 03:18:51;;;;;;;14.00;6.97;;;;;;;3.77;100.00;99646.91;4978443;28;20034;-67
2021/12/06 03:21:18;;;;;;;14.57;7.05;;;;;;;3.72;100.00;99650.50;4971135;28;20085;-67
2021/12/06 03:23:45;;;;;;;14.30;7.10;;;;;;;3.67;100.00;99647.03;4981157;28;20022;-67
2021/12/06 03:26:10;;;;;;;14.57;7.10;;;;;;;3.62;100.00;99643.59;4986764;28;20027;-67
2021/12/06 03:28:38;;;;;;;16.42;7.15;;;;;;;3.62;100.00;99654.09;4985226;28;20606;-67
2021/12/06 03:31:04;;;;;;;13.55;6.47;;;;;;;3.55;100.00;99655.94;4990691;28;20038;-67
2021/12/06 03:33:30;;;;;;;18.33;7.32;;;;;;;3.48;100.00;99656.00;4979365;28;20026;-67
2021/12/06 03:35:56;;;;;;;13.52;7.70;;;;;;;3.43;100.00;99657.78;4974069;28;20027;-67
2021/12/06 03:38:22;;;;;;;16.23;6.93;;;;;;;3.27;100.00;99645.69;4978685;28;20030;-67
2021/12/06 03:40:48;;;;;;;18.90;6.93;;;;;;;3.29;100.00;99659.69;4980411;28;20049;-67
2021/12/06 03:43:14;;;;;;;15.48;6.75;;;;;;;3.18;100.00;99662.41;4985262;28;20030;-67
2021/12/06 03:45:39;;;;;;;14.45;7.15;;;;;;;3.11;100.00;99671.25;4988186;28;20037;-67
2021/12/06 03:48:05;;;;;;;15.05;6.80;;;;;;;3.12;100.00;99667.72;4990757;28;20026;-67
2021/12/06 03:50:30;;;;;;;17.15;7.43;;;;;;;3.17;100.00;99659.78;4977458;28;20023;-67
2021/12/06 03:52:56;;;;;;;18.15;7.20;;;;;;;3.30;100.00;99667.56;5004369;28;20026;-67
2021/12/06 03:55:22;;;;;;;15.00;6.10;;;;;;;3.43;100.00;99674.44;5014801;28;20018;-67
2021/12/06 03:57:47;;;;;;;16.45;5.35;;;;;;;3.40;100.00;99678.84;4989884;28;20145;-67
2021/12/06 04:00:13;;;;;;;18.77;6.38;;;;;;;3.36;100.00;99682.41;4997151;28;20072;-67
2021/12/06 04:02:40;;;;;;;12.13;5.03;;;;;;;3.32;100.00;99691.19;4995172;28;20030;-67
2021/12/06 04:05:06;;;;;;;18.10;6.28;;;;;;;3.33;100.00;99692.94;4989920;28;20041;-67
2021/12/06 04:07:31;;;;;;;16.85;5.38;;;;;;;3.34;100.00;99694.69;4996402;28;20026;-67
2021/12/06 04:09:57;;;;;;;24.48;5.00;;;;;;;3.25;100.00;99697.38;4994201;28;20076;-67
2021/12/06 04:12:22;;;;;;;18.83;5.63;;;;;;;3.31;100.00;99706.09;4980381;28;20022;-67
2021/12/06 04:14:48;;;;;;;13.70;6.28;;;;;;;3.26;100.00;99702.63;4985221;28;20030;-67
2021/12/06 04:17:14;;;;;;;24.73;6.85;;;;;;;3.35;100.00;99717.44;4982953;28;20030;-67
2021/12/06 04:19:42;;;;;;;28.65;7.03;;;;;;;3.35;100.00;99723.59;4977064;28;20049;-67
2021/12/06 04:22:09;;;;;;;15.43;5.82;;;;;;;3.39;100.00;99720.06;4977748;28;20335;-67
2021/12/06 04:24:38;;;;;;;24.23;6.43;;;;;;;3.41;100.00;99723.53;4993627;28;20080;-67
2021/12/06 04:27:13;;;;;;;16.90;6.25;;;;;;;3.48;100.00;99721.72;4996485;28;20066;-67
2021/12/06 04:29:41;;;;;;;19.40;5.90;;;;;;;3.41;100.00;99722.69;4987630;28;20111;-67
2021/12/06 04:32:08;;;;;;;12.75;5.35;;;;;;;3.39;100.00;99733.22;4997093;28;20036;-67
2021/12/06 04:34:33;;;;;;;13.40;5.05;;;;;;;3.36;100.00;99734.97;4997648;28;20628;-67
2021/12/06 04:36:59;;;;;;;14.15;4.88;;;;;;;3.35;100.00;99730.59;4982867;28;20033;-67
2021/12/06 04:39:24;;;;;;;16.08;5.95;;;;;;;3.38;100.00;99743.72;4976580;28;20018;-67
2021/12/06 04:41:50;;;;;;;12.68;5.78;;;;;;;3.41;100.00;99741.94;4981820;28;20035;-67
2021/12/06 04:44:16;;;;;;;14.82;5.88;;;;;;;3.49;100.00;99752.41;4980098;28;20030;-67
2021/12/06 04:46:41;;;;;;;18.17;5.55;;;;;;;3.55;100.00;99757.59;4977290;28;20390;-67
2021/12/06 04:49:07;;;;;;;14.77;5.75;;;;;;;3.56;100.00;99760.19;4985719;28;20057;-67
2021/12/06 04:51:34;;;;;;;12.45;5.22;;;;;;;3.46;100.00;99741.91;4993439;28;20080;-67
2021/12/06 04:54:00;;;;;;;15.25;6.80;;;;;;;3.47;100.00;99772.56;4990549;28;20023;-67
2021/12/06 04:56:33;;;;;;;17.63;6.55;;;;;;;3.34;100.00;99768.28;4974158;28;20039;-67
2021/12/06 04:59:21;;;;;;;15.48;5.70;;;;;;;3.30;100.00;99777.94;4978073;28;20152;-67
2021/12/06 05:01:48;;;;;;;11.73;6.35;;;;;;;3.29;100.00;99785.84;4992804;28;20038;-67
2021/12/06 05:04:22;;;;;;;19.15;5.75;;;;;;;3.31;100.00;99789.34;4993462;28;20022;-67
2021/12/06 05:06:51;;;;;;;20.20;6.43;;;;;;;3.31;100.00;99799.84;4982765;28;20122;-67
2021/12/06 05:09:28;;;;;;;15.13;5.65;;;;;;;3.30;100.00;99798.09;5001267;28;20042;-67
2021/12/06 05:11:54;;;;;;;21.98;5.85;;;;;;;3.34;100.00;99805.09;4973087;28;20022;-67
2021/12/06 05:14:20;;;;;;;18.00;6.03;;;;;;;3.39;100.00;99805.94;4996897;28;20038;-67
2021/12/06 05:16:46;;;;;;;12.80;6.20;;;;;;;3.41;100.00;99791.03;4992590;28;20040;-67
2021/12/06 05:19:11;;;;;;;21.52;7.57;;;;;;;3.49;100.00;99799.72;4989515;28;20114;-67
2021/12/06 05:21:37;;;;;;;20.10;7.53;;;;;;;3.58;100.00;99799.63;4981545;28;20019;-67
2021/12/06 05:24:06;;;;;;;14.65;6.85;;;;;;;3.61;100.00;99804.84;4973480;28;20027;-67
2021/12/06 05:26:31;;;;;;;15.93;7.50;;;;;;;3.62;100.00;99801.34;4990200;28;20026;-67
2021/12/06 05:29:00;;;;;;;18.42;5.32;;;;;;;3.69;100.00;99813.59;4993176;28;20033;-67
2021/12/06 05:31:26;;;;;;;18.65;8.23;;;;;;;3.74;100.00;99811.78;4992959;28;20034;-67
2021/12/06 05:33:56;;;;;;;19.55;8.20;;;;;;;3.76;100.00;99815.25;4991038;28;20057;-67
2021/12/06 05:36:22;;;;;;;20.63;8.25;;;;;;;3.84;100.00;99821.31;4986286;28;20516;-67
2021/12/06 05:38:50;;;;;;;18.58;7.95;;;;;;;3.80;100.00;99816.97;4992665;28;20105;-67
2021/12/06 05:41:16;;;;;;;17.20;9.23;;;;;;;3.86;100.00;99816.91;4993928;28;20080;-67
2021/12/06 05:43:41;;;;;;;18.23;7.40;;;;;;;3.86;100.00;99820.44;4987130;28;20102;-67
2021/12/06 05:46:07;;;;;;;38.22;16.63;;;;;;;3.88;100.00;99825.69;4978153;28;20531;-67
2021/12/06 05:48:32;;;;;;;22.95;8.88;;;;;;;3.84;100.00;99834.47;4973434;28;20025;-67
2021/12/06 05:50:58;;;;;;;17.30;7.50;;;;;;;3.86;100.00;99832.69;4972982;28;20105;-67
2021/12/06 05:53:23;;;;;;;18.83;7.22;;;;;;;3.89;100.00;99843.19;4982298;28;20018;-67
2021/12/06 05:55:49;;;;;;;16.00;7.47;;;;;;;3.82;100.00;99846.78;4994537;28;20054;-67
2021/12/06 05:58:17;;;;;;;14.95;6.85;;;;;;;3.87;100.00;99852.88;4992182;28;20034;-67
2021/12/06 06:00:43;;;;;;;15.02;7.50;;;;;;;3.91;100.00;99852.84;4994083;28;20427;-67
2021/12/06 06:03:10;;;;;;;16.65;7.00;;;;;;;3.82;100.00;99837.13;4994087;28;20113;-67
2021/12/06 06:05:37;;;;;;;18.08;6.07;;;;;;;3.88;100.00;99859.88;4992182;28;20034;-67
2021/12/06 06:08:04;;;;;;;19.05;7.13;;;;;;;3.82;100.00;99860.78;4989222;28;20064;-67
2021/12/06 06:10:33;;;;;;;20.90;10.02;;;;;;;3.78;100.00;99866.97;4974245;28;20027;-66
2021/12/06 06:13:01;;;;;;;21.88;8.52;;;;;;;3.69;100.00;99876.69;4973527;28;20054;-66
2021/12/06 06:15:29;;;;;;;16.48;8.23;;;;;;;3.53;100.00;99859.25;4987303;28;20077;-66
2021/12/06 06:17:55;;;;;;;35.45;8.57;;;;;;;3.63;100.00;99888.13;4994430;28;20102;-66
2021/12/06 06:20:30;;;;;;;19.40;7.82;;;;;;;3.67;100.00;99891.59;4981313;28;20136;-66
2021/12/06 06:22:56;;;;;;;19.35;8.30;;;;;;;3.56;100.00;99881.16;4972653;28;20045;-66
2021/12/06 06:25:21;;;;;;;24.60;11.15;;;;;;;3.66;100.00;99905.63;4974830;28;20038;-66
2021/12/06 06:27:47;;;;;;;19.75;8.32;;;;;;;3.76;100.00;99904.69;4990138;28;20105;-66
2021/12/06 06:30:14;;;;;;;31.08;10.35;;;;;;;3.68;100.00;99906.50;4991192;28;20455;-66
2021/12/06 06:32:41;;;;;;;21.95;8.90;;;;;;;3.63;100.00;99917.06;4978778;28;20038;-66
2021/12/06 06:35:07;;;;;;;31.23;10.90;;;;;;;3.67;100.00;99917.91;4972423;28;20114;-66
2021/12/06 06:37:33;;;;;;;28.77;9.55;;;;;;;3.70;100.00;99925.78;4973140;28;20483;-66
2021/12/06 06:39:59;;;;;;;23.65;8.85;;;;;;;3.74;100.00;99933.63;4975625;28;20053;-67
2021/12/06 06:42:24;;;;;;;22.33;8.32;;;;;;;3.75;100.00;99939.78;4976363;28;20026;-67
2021/12/06 06:44:51;;;;;;;23.63;7.85;;;;;;;3.81;100.00;99934.47;4985466;28;20037;-67
2021/12/06 06:47:17;;;;;;;24.23;9.43;;;;;;;3.86;100.00;99932.66;4976919;28;20033;-67
2021/12/06 06:49:43;;;;;;;23.90;10.73;;;;;;;3.82;100.00;99925.69;4971664;28;20203;-67
2021/12/06 06:52:08;;;;;;;29.67;12.00;;;;;;;4.01;100.00;99937.81;4975410;28;20113;-67
2021/12/06 06:54:34;;;;;;;23.77;10.13;;;;;;;3.98;100.00;99938.72;4981668;28;20035;-67
2021/12/06 06:56:59;;;;;;;19.42;9.65;;;;;;;3.98;100.00;99943.13;4972066;28;20058;-67
2021/12/06 06:59:25;;;;;;;23.35;8.77;;;;;;;4.02;100.00;99944.81;4987541;28;20024;-67
2021/12/06 07:01:50;;;;;;;19.40;8.90;;;;;;;4.02;100.00;99952.72;5010602;28;20022;-67
2021/12/06 07:04:16;;;;;;;26.52;9.68;;;;;;;4.05;100.00;99960.59;5010872;28;20034;-67
2021/12/06 07:06:42;;;;;;;23.50;9.00;;;;;;;4.03;100.00;99943.94;5006328;28;20034;-67
2021/12/06 07:09:08;;;;;;;22.88;7.85;;;;;;;4.13;100.00;99958.78;4978002;28;20081;-67
2021/12/06 07:11:33;;;;;;;28.73;10.10;;;;;;;4.17;100.00;99957.88;4970899;28;20034;-67
2021/12/06 07:13:59;;;;;;;22.05;7.65;;;;;;;4.19;100.00;99969.25;4983523;28;20566;-67
2021/12/06 07:16:26;;;;;;;20.42;8.52;;;;;;;4.19;100.00;99965.75;4991032;28;20105;-67
2021/12/06 07:18:52;;;;;;;18.58;8.43;;;;;;;4.21;100.00;99972.75;4986523;28;20553;-67
2021/12/06 07:21:18;;;;;;;43.25;19.40;;;;;;;4.19;100.00;99964.00;4977041;28;20027;-67
2021/12/06 07:23:44;;;;;;;45.28;19.30;;;;;;;4.22;100.00;99971.88;4971704;28;20096;-67
2021/12/06 07:26:13;;;;;;;23.40;12.10;;;;;;;4.24;100.00;99978.00;4972937;28;20041;-67
2021/12/06 07:28:40;;;;;;;27.90;13.52;;;;;;;4.27;100.00;99971.84;4978699;28;20069;-67
2021/12/06 07:31:06;;;;;;;29.60;14.05;;;;;;;4.26;100.00;99970.97;4971385;28;20069;-67
2021/12/06 07:33:35;;;;;;;31.65;14.68;;;;;;;4.35;100.00;99986.66;4974455;28;20805;-67
2021/12/06 07:36:02;;;;;;;28.65;11.90;;;;;;;4.38;100.00;99991.94;4977098;28;20027;-67
2021/12/06 07:38:27;;;;;;;25.33;11.48;;;;;;;4.37;100.00;99979.63;4971111;28;20394;-67
2021/12/06 07:40:54;;;;;;;24.13;10.80;;;;;;;4.50;100.00;99996.22;4972230;28;20030;-67
2021/12/06 07:43:20;;;;;;;20.83;10.32;;;;;;;4.48;100.00;99988.31;4978306;28;20084;-67
2021/12/06 07:45:46;;;;;;;22.95;9.25;;;;;;;4.61;100.00;100003.13;4989634;28;20117;-67
2021/12/06 07:48:12;;;;;;;19.55;8.75;;;;;;;4.59;100.00;100004.91;4982570;28;20427;-67
2021/12/06 07:50:39;;;;;;;26.33;10.98;;;;;;;4.59;100.00;100002.28;5009390;28;20021;-67
2021/12/06 07:53:05;;;;;;;23.20;9.80;;;;;;;4.55;100.00;100004.94;4998479;28;20739;-67
2021/12/06 07:55:34;;;;;;;21.38;9.90;;;;;;;4.54;100.00;100014.63;4979620;28;20482;-67
2021/12/06 07:58:00;;;;;;;21.30;9.75;;;;;;;4.54;100.00;100014.63;4990618;28;20030;-67
2021/12/06 08:00:30;;;;;;;21.45;9.90;;;;;;;4.57;100.00;100014.59;4987525;28;20029;-67
2021/12/06 08:02:56;;;;;;;22.45;8.50;;;;;;;4.69;100.00;100014.47;4994806;28;20127;-67
2021/12/06 08:05:30;;;;;;;23.10;10.07;;;;;;;4.66;100.00;100016.25;4983687;28;20038;-67
2021/12/06 08:08:14;;;;;;;22.15;8.70;;;;;;;4.65;100.00;100006.59;4988890;28;20505;-67
2021/12/06 08:10:44;;;;;;;22.58;8.27;;;;;;;4.66;100.00;100014.47;4989659;28;20102;-67
2021/12/06 08:13:11;;;;;;;17.05;8.40;;;;;;;4.77;100.00;100025.81;4983580;28;20055;-67
2021/12/06 08:15:37;;;;;;;19.00;9.45;;;;;;;4.75;100.00;100018.81;4990025;28;20058;-67
2021/12/06 08:18:04;;;;;;;18.38;8.38;;;;;;;4.76;100.00;100024.06;4981025;28;20045;-67
2021/12/06 08:20:30;;;;;;;16.10;7.95;;;;;;;4.78;100.00;100027.56;4990552;28;20030;-67
2021/12/06 08:22:55;;;;;;;17.00;8.13;;;;;;;4.78;100.00;100032.81;4989022;28;20475;-67
2021/12/06 08:25:21;;;;;;;21.85;8.50;;;;;;;4.83;100.00;100035.41;4979507;28;20026;-67
2021/12/06 08:27:47;;;;;;;22.15;9.70;;;;;;;4.87;100.00;100043.28;4979354;28;20029;-67
2021/12/06 08:30:14;;;;;;;16.77;8.38;;;;;;;4.97;100.00;100037.06;4995724;28;20057;-67
2021/12/06 08:32:40;;;;;;;21.55;10.45;;;;;;;4.98;100.00;100036.16;4986390;28;20479;-67
2021/12/06 08:35:06;;;;;;;22.80;10.75;;;;;;;5.03;100.00;100038.72;4983509;28;20085;-67
2021/12/06 08:37:32;;;;;;;20.80;10.85;;;;;;;5.04;100.00;100049.25;4974843;28;20026;-67
2021/12/06 08:39:57;;;;;;;24.85;11.82;;;;;;;5.04;100.00;100043.97;4975110;28;20034;-67
2021/12/06 08:42:23;;;;;;;21.00;10.65;;;;;;;4.98;100.00;100041.41;4985769;28;20026;-67
2021/12/06 08:44:49;;;;;;;21.08;10.13;;;;;;;5.06;100.00;100043.97;4993791;28;20026;-67
2021/12/06 08:47:16;;;;;;;20.42;9.52;;;;;;;4.90;100.00;100030.09;4990353;28;20034;-67
2021/12/06 08:49:42;;;;;;;18.85;10.50;;;;;;;5.01;100.00;100038.75;4993643;28;20506;-67
2021/12/06 08:52:07;;;;;;;18.63;8.48;;;;;;;5.09;100.00;100036.06;4995239;28;20014;-67
2021/12/06 08:54:33;;;;;;;21.08;9.70;;;;;;;5.12;100.00;100036.88;4981108;28;20049;-67
2021/12/06 08:57:01;;;;;;;18.55;9.60;;;;;;;5.22;100.00;100038.50;4973822;28;20026;-67
2021/12/06 08:59:27;;;;;;;19.20;10.57;;;;;;;5.21;100.00;100026.25;4976943;28;20495;-67
2021/12/06 09:01:56;;;;;;;21.88;9.88;;;;;;;5.46;100.00;100040.00;4984867;28;20141;-67
2021/12/06 09:04:22;;;;;;;18.33;9.23;;;;;;;5.53;100.00;100035.53;5012628;28;20490;-67
2021/12/06 09:06:50;;;;;;;21.33;10.07;;;;;;;5.52;100.00;100036.44;5004082;28;20026;-67
2021/12/06 09:09:16;;;;;;;21.48;10.10;;;;;;;5.59;100.00;100038.09;4978515;28;20023;-67
2021/12/06 09:11:44;;;;;;;21.92;10.43;;;;;;;5.69;100.00;100034.44;4972940;28;20054;-67
2021/12/06 09:14:11;;;;;;;23.77;10.63;;;;;;;5.85;100.00;100041.34;4979798;28;20049;-67
2021/12/06 09:16:37;;;;;;;22.70;11.10;;;;;;;5.90;100.00;100047.38;4992560;28;20133;-67
2021/12/06 09:19:06;;;;;;;21.40;9.68;;;;;;;5.93;100.00;100032.38;4988104;28;20058;-67
2021/12/06 09:21:36;;;;;;;23.17;10.23;;;;;;;6.03;100.00;100043.72;4986965;28;20034;-67
2021/12/06 09:24:04;;;;;;;22.67;10.82;;;;;;;5.98;100.00;100029.72;4993244;28;20030;-67
2021/12/06 09:26:30;;;;;;;23.63;13.52;;;;;;;6.16;100.00;100037.38;4990202;28;20034;-67
2021/12/06 09:28:56;;;;;;;25.70;12.93;;;;;;;6.22;100.00;100037.25;4992864;28;20038;-67
2021/12/06 09:31:23;;;;;;;23.75;12.48;;;;;;;6.22;100.00;100034.63;4993405;28;20053;-67
2021/12/06 09:33:48;;;;;;;32.28;15.38;;;;;;;6.17;100.00;100039.09;4990520;28;20434;-67
2021/12/06 09:36:14;;;;;;;40.67;15.55;;;;;;;6.10;100.00;100048.00;4996656;28;20052;-67
2021/12/06 09:38:41;;;;;;;30.02;13.50;;;;;;;6.16;100.00;100053.22;5011984;28;20030;-67
2021/12/06 09:41:20;;;;;;;36.15;15.70;;;;;;;6.25;100.00;100060.97;4986515;28;20548;-67
2021/12/06 09:43:46;;;;;;;20.30;10.68;;;;;;;6.34;100.00;100063.50;4973245;28;20027;-67
2021/12/06 09:46:13;;;;;;;19.75;12.13;;;;;;;6.41;100.00;100063.38;4975369;28;20030;-67
2021/12/06 09:48:41;;;;;;;19.17;11.00;;;;;;;6.36;100.00;100065.22;4978857;28;20446;-67
2021/12/06 09:51:11;;;;;;;18.08;9.50;;;;;;;6.28;100.00;100079.41;4973327;28;20034;-67
2021/12/06 09:53:40;;;;;;;19.35;9.18;;;;;;;6.32;100.00;100071.44;4974199;28;20474;-67
2021/12/06 09:56:09;;;;;;;12.60;7.22;;;;;;;6.37;100.00;100079.31;4977433;28;20494;-67
2021/12/06 09:58:35;;;;;;;14.57;7.47;;;;;;;6.33;100.00;100067.03;4992515;28;20026;-67
2021/12/06 10:01:07;;;;;;;14.77;8.50;;;;;;;6.32;100.00;100083.78;4990312;28;20161;-67
2021/12/06 10:03:34;;;;;;;13.98;7.30;;;;;;;6.41;100.00;100076.59;4991221;28;20029;-67
2021/12/06 10:06:04;;;;;;;16.23;8.45;;;;;;;6.47;100.00;100076.47;4991800;28;20120;-67
2021/12/06 10:08:34;;;;;;;13.90;7.93;;;;;;;6.55;100.00;100071.09;4995291;28;20022;-67
2021/12/06 10:10:59;;;;;;;14.45;7.65;;;;;;;6.71;100.00;100062.03;4992254;28;20030;-67
2021/12/06 10:13:26;;;;;;;13.73;7.50;;;;;;;6.69;100.00;100069.97;4992574;28;20050;-67
2021/12/06 10:15:52;;;;;;;14.65;8.60;;;;;;;6.77;100.00;100069.00;4992228;28;20506;-67
2021/12/06 10:18:20;;;;;;;14.40;7.50;;;;;;;6.69;99.85;100064.69;4992163;28;20101;-67
2021/12/06 10:20:46;;;;;;;14.40;7.70;;;;;;;6.74;99.21;100064.59;4991899;28;20022;-67
2021/12/06 10:23:12;;;;;;;13.30;7.38;;;;;;;6.81;99.38;100068.91;4982536;28;20034;-67
2021/12/06 10:25:45;;;;;;;13.07;7.38;;;;;;;6.85;98.64;100067.09;4992363;28;20018;-67
2021/12/06 10:28:12;;;;;;;15.17;7.20;;;;;;;6.88;97.92;100054.69;4988133;28;20505;-67
2021/12/06 10:30:42;;;;;;;13.48;7.63;;;;;;;6.86;98.13;100047.66;4988556;28;20391;-67
2021/12/06 10:33:14;;;;;;;12.88;7.60;;;;;;;6.85;97.33;100057.41;4991480;28;20034;-67
2021/12/06 10:35:42;;;;;;;10.65;5.15;;;;;;;6.90;98.09;100059.94;4988493;28;20019;-67
2021/12/06 10:38:08;;;;;;;12.75;6.53;;;;;;;6.93;97.93;100065.19;4991847;28;20030;-67
2021/12/06 10:40:40;;;;;;;11.57;5.63;;;;;;;6.97;98.31;100059.81;4991811;28;20102;-67
2021/12/06 10:43:11;;;;;;;10.38;6.15;;;;;;;6.98;98.26;100050.09;4992468;28;20023;-67
2021/12/06 10:45:44;;;;;;;11.10;6.78;;;;;;;6.94;98.04;100056.34;4987945;28;20199;-67
2021/12/06 10:48:18;;;;;;;12.75;6.75;;;;;;;6.95;98.08;100055.47;4972574;28;20026;-67
2021/12/06 10:50:59;;;;;;;10.77;5.78;;;;;;;6.95;97.76;100052.81;4971639;28;20046;-67
2021/12/06 10:53:27;;;;;;;12.35;7.05;;;;;;;6.90;97.60;100052.91;4979327;28;20078;-67
2021/12/06 10:55:55;;;;;;;12.27;6.35;;;;;;;6.93;98.13;100038.75;4971578;28;20022;-67
2021/12/06 10:58:24;;;;;;;11.95;6.25;;;;;;;6.97;97.94;100041.28;4974918;28;20113;-67
2021/12/06 11:00:56;;;;;;;13.00;7.78;;;;;;;7.16;98.13;100048.00;5000863;28;20018;-67
2021/12/06 11:03:26;;;;;;;10.20;6.13;;;;;;;7.19;97.45;100052.34;5010008;28;20033;-67
2021/12/06 11:06:05;;;;;;;13.35;6.18;;;;;;;7.24;96.40;100054.03;5011017;28;20026;-67
2021/12/06 11:08:35;;;;;;;12.23;7.15;;;;;;;7.30;94.77;100045.09;4983625;28;20048;-67
2021/12/06 11:11:27;;;;;;;14.18;5.97;;;;;;;7.33;93.72;100040.63;4990707;28;20453;-67
2021/12/06 11:13:59;;;;;;;8.35;5.97;;;;;;;7.40;92.41;100031.66;4975561;28;20499;-67
2021/12/06 11:16:28;;;;;;;9.85;5.82;;;;;;;7.59;92.24;100025.13;4972741;28;20029;-67
2021/12/06 11:18:55;;;;;;;10.18;5.28;;;;;;;7.88;91.38;100020.06;4976791;28;20030;-67
2021/12/06 11:21:26;;;;;;;10.35;6.30;;;;;;;8.19;90.38;100009.66;4991109;28;20022;-67
2021/12/06 11:24:05;;;;;;;9.30;5.50;;;;;;;8.63;85.21;100013.94;4987760;28;20482;-67
2021/12/06 11:26:32;;;;;;;10.07;5.53;;;;;;;9.05;84.68;100013.69;4987217;28;20034;-66
2021/12/06 11:29:21;;;;;;;9.07;4.70;;;;;;;9.29;81.99;100014.84;4990589;28;20023;-66
2021/12/06 11:31:57;;;;;;;8.88;4.78;;;;;;;9.35;79.16;100014.66;4988445;28;20394;-66
2021/12/06 11:34:27;;;;;;;11.63;5.68;;;;;;;9.47;77.59;100019.63;4990393;28;20041;-66
2021/12/06 11:36:53;;;;;;;10.07;5.07;;;;;;;9.68;76.73;100015.47;4980350;28;20026;-66
2021/12/06 11:39:20;;;;;;;8.45;4.30;;;;;;;9.87;72.14;100008.69;4980965;28;20029;-66
2021/12/06 11:41:56;;;;;;;8.82;3.95;;;;;;;9.61;72.83;100022.75;4970906;28;20030;-66